Startpagina
METAR-TAF:

METAR-TAF

Vliegvelden :

Riga, Letland

Luchthaven Riga

breedte: 56-55N, lengte: 023-58E, hoogte: 10 m

Actueel weer

Dit bericht is 30 minuten geleden gemaakt, om 11:50 UTC
Wind 8 kt uit het zuidzuidwesten
Temperatuur 2°C
Vochtigheid 100%
Druk 997 hPa
Zicht 10 km of meer
Geheel bewolkt op 700 ft

METAR: EVRA 191150Z 20008KT 9999 OVC007 02/02 Q0997 R18/190095 NOSIG

Tijdstip: 14:20 (12:20 UTC)

Verwachting

Dit bericht is 1 uur en het 7 minuten geleden gemaakt, om 11:13 UTC
Verwachting geldig van 19 om 12 UTC tot 20 om 12 UTC
Wind 9 kt uit het zuiden
Zicht: 8000 m
Geheel bewolkt op 700 ft
Tijdelijke
van 19 om 12 UTC tot 19 om 15 UTC
Geheel bewolkt op 1000 ft
Tijdelijke
van 19 om 15 UTC tot 20 om 09 UTC
Zicht: 4000 m
Gebroken wolken op 300 ft
lichte regen, nevel
Wijzigt naar
van 20 om 09 UTC tot 20 om 11 UTC
Gebroken wolken op 1500 ft

TAF: EVRA 191113Z 1912/2012 18009KT 8000 OVC007 TEMPO 1912/1915 OVC010 TEMPO 1915/2009 4000 -RA BR BKN003 BECMG 2009/2011 BKN015

Waarnemingen en weersverwachtingen van meer dan 4000 vliegvelden (METAR en TAF).

De beschikbare stations zijn de gele en rode punten op de kaart.

Ga met uw muis naar het station om de naam te zien.

Klik dan om waarnemingen en weersverwachtingen te zien.

kaart wijzigen: klik op de groene knoppen met een zwart kruis om in te zoomen, op de groene knop met een streepje om uit te zoomen of op de groene pijlen voor aangrenzende kaarten.


METAR-TAF: